Latest Weather Observations for St George

IDQ60801

Issued at 7:05 am EST Wednesday 3 September 2014 (issued every 30 minutes, with the page automatically refreshed every 10 minutes)

About weather observations | Map of weather stations | Latest weather observations for QLD | Other Formats
Station Details ID: 043109 Name: ST GEORGE AIRPORT Lat: -28.05 Lon: 148.59 Height: 198.5 m
Data from the previous 72 hours. | See also: Recent months at St George
Date/Time
EST
Temp
°C
App
Temp
°C
Dew
Point
Rel
Hum
%
Delta-T
°C
Wind Press
QNH
hPa
Press
MSL
hPa
Rain
since 9 am
mm
Dir
 
Spd
km/h
Gust
km/h
Spd
kts
Gust
kts
03/07:00am 6.4 2.5 1.1 69 2.1 WSW 11 13 6 7 1019.5 - 0.0
03/06:30am 5.2 1.2 0.2 70 1.9 SW 11 13 6 7 1019.3 - 0.0
03/06:00am 5.8 1.8 0.6 69 2.0 SW 11 15 6 8 1019.0 1018.6 0.0
03/05:30am 6.1 1.7 0.2 66 2.3 SW 13 17 7 9 1018.6 - 0.0
03/05:00am 6.7 2.3 0.6 65 2.4 WSW 13 17 7 9 1018.6 - 0.0
03/04:30am 6.5 2.1 0.6 66 2.3 W 13 17 7 9 1018.2 - 0.0
03/04:00am 6.5 2.1 0.4 65 2.4 WSW 13 15 7 8 1018.0 - 0.0
03/03:30am 7.0 2.5 0.0 61 2.8 WSW 13 17 7 9 1017.8 - 0.0
03/03:00am 7.7 3.3 0.2 59 3.0 WSW 13 17 7 9 1017.9 1017.5 0.0
03/02:30am 7.9 3.1 0.2 58 3.1 SW 15 19 8 10 1018.2 - 0.0
03/02:00am 8.2 3.8 0.4 58 3.1 WSW 13 17 7 9 1018.4 - 0.0
03/01:30am 8.5 3.7 0.0 55 3.4 WSW 15 17 8 9 1018.7 - 0.0
03/01:00am 9.0 4.2 0.2 54 3.6 WSW 15 19 8 10 1018.9 - 0.0
03/12:30am 8.4 4.3 -0.1 55 3.4 WSW 11 15 6 8 1019.0 - 0.0
03/12:00am 9.2 4.6 -0.7 50 3.9 WSW 13 15 7 8 1019.0 1018.6 0.0
 
Date/Time
EST
Temp
°C
App
Temp
°C
Dew
Point
Rel
Hum
%
Delta-T
°C
Wind Press
QNH
hPa
Press
MSL
hPa
Rain
since 9 am
mm
Dir
 
Spd
km/h
Gust
km/h
Spd
kts
Gust
kts
02/11:30pm 9.5 4.9 -0.7 49 4.1 WSW 13 15 7 8 1019.0 - 0.0
02/11:00pm 10.1 5.5 -1.0 46 4.4 WSW 13 17 7 9 1019.0 - 0.0
02/10:30pm 10.7 5.7 -1.4 43 4.8 WSW 15 22 8 12 1019.0 - 0.0
02/10:00pm 10.7 6.0 -2.0 41 5.0 WSW 13 17 7 9 1019.0 - 0.0
02/09:30pm 11.3 6.2 -1.8 40 5.2 WSW 15 19 8 10 1018.8 - 0.0
02/09:00pm 11.4 6.3 -2.0 39 5.3 WSW 15 17 8 9 1018.5 1018.1 0.0
02/08:30pm 12.0 7.2 -2.6 36 5.7 WSW 13 17 7 9 1018.3 - 0.0
02/08:00pm 12.8 7.6 -3.0 33 6.2 WSW 15 19 8 10 1018.1 - 0.0
02/07:30pm 13.8 8.1 -3.5 30 6.8 WSW 17 20 9 11 1017.8 - 0.0
02/07:00pm 14.6 8.6 -3.2 29 7.1 SW 19 28 10 15 1017.3 - 0.0
02/06:30pm 15.3 9.1 -3.1 28 7.4 SW 20 28 11 15 1016.8 - 0.0
02/06:00pm 16.2 8.9 -2.8 27 7.7 SW 26 39 14 21 1016.5 1016.0 0.0
02/05:30pm 17.3 9.7 -2.4 26 8.2 SW 28 39 15 21 1015.9 - 0.0
02/05:16pm 17.4 9.4 -2.3 26 8.2 SW 30 48 16 26 1015.7 - 0.0
02/05:00pm 17.9 10.0 -1.9 26 8.3 SW 30 43 16 23 1015.5 - 0.0
02/04:30pm 18.1 9.9 -1.2 27 8.3 SW 32 50 17 27 1015.2 - 0.0
02/04:28pm 18.4 10.6 -0.9 27 8.3 SW 30 48 16 26 1015.1 - 0.0
02/04:00pm 18.5 10.3 -1.3 26 8.5 SW 32 46 17 25 1014.9 - 0.0
02/03:30pm 19.5 11.0 -1.6 24 9.1 WSW 33 46 18 25 1014.6 - 0.0
02/03:00pm 19.3 10.9 -1.2 25 8.9 WSW 33 48 18 26 1014.4 1014.0 0.0
02/02:31pm 19.4 11.5 0.9 29 8.4 SW 32 50 17 27 1014.3 - 0.0
02/02:30pm 19.9 12.1 1.4 29 8.5 SW 32 46 17 25 1014.3 - 0.0
02/02:00pm 19.5 10.9 0.5 28 8.5 SW 35 50 19 27 1014.5 - 0.0
02/01:48pm 19.9 11.4 0.9 28 8.6 SW 35 57 19 31 1014.5 - 0.0
02/01:30pm 19.8 10.8 0.3 27 8.7 SW 37 52 20 28 1014.5 - 0.0
02/01:20pm 20.3 12.4 2.2 30 8.5 SSW 33 52 18 28 1014.6 - 0.0
02/01:00pm 19.9 11.1 1.4 29 8.5 WSW 37 52 20 28 1014.8 - 0.0
02/12:41pm 20.3 12.1 2.6 31 8.3 WSW 35 54 19 29 1014.8 - 0.0
02/12:30pm 19.9 11.8 3.2 33 7.9 WSW 35 52 19 28 1014.9 - 0.0
02/12:05pm 19.6 12.0 2.9 33 7.9 SW 32 50 17 27 1015.2 - 0.0
02/12:00pm 20.0 12.2 4.9 37 7.4 WSW 35 48 19 26 1015.2 1014.8 0.0
02/11:30am 20.2 12.7 4.7 36 7.6 SW 33 50 18 27 1015.3 - 0.0
02/11:00am 19.5 11.3 4.8 38 7.2 SW 37 43 20 23 1015.4 - 0.0
02/10:56am 19.6 12.1 6.3 42 6.7 W 35 44 19 24 1015.4 - 0.0
02/10:30am 18.6 10.6 5.8 43 6.3 SW 37 46 20 25 1015.6 - 0.0
02/10:00am 19.0 12.8 6.1 43 6.4 WSW 28 39 15 21 1015.6 - 0.0
02/09:30am 17.6 11.3 5.5 45 5.9 WSW 28 39 15 21 1015.4 - 0.0
02/09:00am 17.3 12.1 5.6 46 5.7 SW 22 32 12 17 1015.5 1015.1 0.0
02/08:30am 16.3 11.9 5.0 47 5.4 SSW 17 24 9 13 1015.2 - 0.0
02/08:00am 14.9 10.9 4.9 51 4.7 SSW 15 19 8 10 1014.8 - 0.0
02/07:30am 14.0 10.1 3.5 49 4.8 S 13 22 7 12 1014.0 - 0.0
02/07:00am 14.4 8.8 1.0 40 5.8 S 20 32 11 17 1013.4 - 0.0
02/06:30am 13.8 7.9 -2.2 33 6.4 SW 19 24 10 13 1012.9 - 0.0
02/06:00am 12.2 7.5 -1.7 38 5.6 W 13 15 7 8 1012.3 1011.8 0.0
02/05:30am 14.1 8.6 -2.3 32 6.6 WNW 17 28 9 15 1011.9 - 0.0
02/05:00am 14.6 9.9 -1.5 33 6.6 N 13 19 7 10 1010.7 - 0.0
02/04:30am 13.9 9.3 -0.9 36 6.1 N 13 17 7 9 1010.6 - 0.0
02/04:00am 13.8 9.3 -0.3 38 5.9 N 13 15 7 8 1010.6 - 0.0
02/03:30am 14.5 10.4 0.0 37 6.2 N 11 15 6 8 1011.0 - 0.0
02/03:00am 14.8 10.7 -0.1 36 6.3 N 11 13 6 7 1011.5 1011.0 0.0
02/02:30am 14.6 10.6 0.5 38 6.1 N 11 13 6 7 1011.7 - 0.0
02/02:00am 14.7 11.0 0.2 37 6.2 N 9 11 5 6 1012.2 - 0.0
02/01:30am 14.8 10.8 0.3 37 6.2 N 11 13 6 7 1012.5 - 0.0
02/01:00am 14.4 10.9 1.3 41 5.7 N 9 11 5 6 1012.7 - 0.0
02/12:30am 13.1 9.5 3.2 51 4.5 N 11 13 6 7 1013.1 - 0.0
02/12:00am 12.5 10.0 3.7 55 4.0 N 6 7 3 4 1013.5 1013.1 0.0
 
Date/Time
EST
Temp
°C
App
Temp
°C
Dew
Point
Rel
Hum
%
Delta-T
°C
Wind Press
QNH
hPa
Press
MSL
hPa
Rain
since 9 am
mm
Dir
 
Spd
km/h
Gust
km/h
Spd
kts
Gust
kts
01/11:30pm 12.9 10.3 4.1 55 4.0 NNE 7 9 4 5 1013.8 - 0.0
01/11:00pm 11.9 9.0 2.4 52 4.2 NNE 7 7 4 4 1014.2 - 0.0
01/10:30pm 12.9 11.4 3.0 51 4.4 CALM 0 0 0 0 1014.5 - 0.0
01/10:00pm 12.9 11.2 1.6 46 4.9 CALM 0 2 0 1 1014.6 - 0.0
01/09:30pm 13.7 10.5 -0.7 37 6.0 N 6 7 3 4 1014.5 - 0.0
01/09:00pm 14.2 11.6 0.8 40 5.8 NNE 4 6 2 3 1014.8 1014.4 0.0
01/08:30pm 15.0 11.9 1.2 39 6.0 NNE 7 7 4 4 1014.7 - 0.0
01/08:00pm 15.2 13.5 2.1 41 5.9 CALM 0 0 0 0 1014.5 - 0.0
01/07:30pm 16.0 14.0 0.2 34 6.8 CALM 0 0 0 0 1014.4 - 0.0
01/07:00pm 16.8 14.7 2.0 37 6.7 SSW 2 13 1 7 1014.3 - 0.0
01/06:30pm 18.8 16.7 -1.1 26 8.6 CALM 0 0 0 0 1014.1 - 0.0
01/06:00pm 21.4 19.2 -1.8 21 10.1 CALM 0 0 0 0 1014.0 1013.6 0.0
01/05:30pm 22.9 19.3 -1.9 19 10.9 WSW 7 7 4 4 1013.9 - 0.0
01/05:00pm 24.6 20.4 -3.7 15 12.2 W 9 15 5 8 1013.9 - 0.0
01/04:30pm 25.0 19.6 -4.3 14 12.6 W 15 20 8 11 1013.7 - 0.0
01/04:00pm 25.9 20.1 -4.6 13 13.1 WNW 17 28 9 15 1013.5 - 0.0
01/03:30pm 26.2 21.6 -4.4 13 13.2 NW 11 19 6 10 1013.9 - 0.0
01/03:00pm 25.6 21.4 -3.8 14 12.8 NNW 9 15 5 8 1014.0 1013.6 0.0
01/02:30pm 25.8 20.9 -3.7 14 12.9 NNW 13 22 7 12 1014.5 - 0.0
01/02:00pm 25.4 20.2 -3.1 15 12.5 NW 15 24 8 13 1014.6 - 0.0
01/01:30pm 25.3 20.4 -3.2 15 12.5 NNW 13 24 7 13 1014.8 - 0.0
01/01:00pm 24.4 18.9 -2.2 17 11.8 NW 17 30 9 16 1015.7 - 0.0
01/12:30pm 25.2 20.6 -0.8 18 11.9 NW 13 20 7 11 1016.5 - 0.0
01/12:00pm 24.8 20.6 -1.1 18 11.8 WNW 11 19 6 10 1017.2 1016.7 0.0
01/11:30am 24.2 19.3 -0.2 20 11.2 WNW 15 22 8 12 1017.7 - 0.0
01/11:00am 23.1 17.3 0.2 22 10.5 WNW 20 28 11 15 1018.1 - 0.0
01/10:30am 22.0 17.5 2.2 27 9.4 N 15 26 8 14 1018.6 - 0.0
01/10:00am 22.0 17.8 3.6 30 8.9 N 15 20 8 11 1018.7 - 0.0
01/09:30am 20.6 17.2 4.2 34 8.0 NNE 11 15 6 8 1018.8 - 0.0
01/09:00am 19.5 15.9 4.8 38 7.2 NE 13 17 7 9 1018.8 1018.4 0.0
01/08:30am 17.2 13.9 4.5 43 6.1 NNE 11 13 6 7 1018.8 - 0.0
01/08:00am 14.7 12.1 4.1 49 4.9 N 7 9 4 5 1018.9 - 0.0
01/07:30am 10.8 9.8 5.6 70 2.4 CALM 0 0 0 0 1019.2 - 0.0
01/07:00am 7.5 6.4 5.1 85 1.1 CALM 0 0 0 0 1018.9 - 0.0
01/06:30am 6.0 4.5 3.2 82 1.2 CALM 0 0 0 0 1018.6 - 0.0
01/06:00am 6.2 3.9 2.7 78 1.5 NW 4 6 2 3 1018.1 1017.7 0.0
01/05:30am 6.3 3.4 2.8 78 1.5 NW 7 9 4 5 1017.8 - 0.0
01/05:00am 6.6 3.8 3.4 80 1.4 WNW 7 9 4 5 1017.4 - 0.0
01/04:30am 6.9 4.3 4.0 82 1.3 WNW 7 9 4 5 1017.3 - 0.0
01/04:00am 6.4 4.8 2.7 77 1.5 CALM 0 0 0 0 1016.9 - 0.0
01/03:30am 7.0 4.7 2.7 74 1.8 WNW 4 7 2 4 1016.9 - 0.0
01/03:00am 6.5 4.2 2.6 76 1.6 WSW 4 6 2 3 1016.8 1016.3 0.0
01/02:30am 7.9 6.1 3.2 72 2.0 NE 2 7 1 4 1017.2 - 0.0
01/02:00am 7.7 6.2 2.8 71 2.1 CALM 0 0 0 0 1017.4 - 0.0
01/01:30am 8.1 5.8 2.8 69 2.3 ENE 4 7 2 4 1017.7 - 0.0
01/01:00am 8.3 5.6 2.8 68 2.3 NE 6 7 3 4 1017.9 - 0.0
01/12:30am 8.9 7.5 3.5 69 2.4 CALM 0 0 0 0 1018.2 - 0.0
01/12:00am 9.2 7.8 3.4 67 2.5 CALM 0 0 0 0 1018.1 1017.7 0.0
 
Date/Time
EST
Temp
°C
App
Temp
°C
Dew
Point
Rel
Hum
%
Delta-T
°C
Wind Press
QNH
hPa
Press
MSL
hPa
Rain
since 9 am
mm
Dir
 
Spd
km/h
Gust
km/h
Spd
kts
Gust
kts
31/11:30pm 9.6 8.2 3.6 66 2.6 CALM 0 0 0 0 1018.5 - 0.0
31/11:00pm 9.8 8.4 3.5 65 2.8 CALM 0 0 0 0 1018.5 - 0.0
31/10:30pm 10.3 8.9 3.8 64 2.9 CALM 0 0 0 0 1018.5 - 0.0
31/10:00pm 10.7 9.4 4.0 63 3.0 CALM 0 0 0 0 1018.4 - 0.0
31/09:30pm 11.1 9.6 3.2 58 3.5 CALM 0 0 0 0 1018.3 - 0.0
31/09:00pm 11.8 10.4 3.6 57 3.7 CALM 0 0 0 0 1018.3 1018.2 0.0
31/08:30pm 13.0 11.6 3.4 52 4.3 CALM 0 0 0 0 1018.1 - 0.0
31/08:00pm 13.9 11.6 2.8 47 5.0 SSE 4 7 2 4 1017.9 - 0.0
31/07:30pm 15.1 12.5 3.3 45 5.4 SSE 6 7 3 4 1017.9 - 0.0
31/07:00pm 15.6 14.2 3.4 44 5.6 CALM 0 9 0 5 1017.7 - 0.0
31/06:30pm 17.5 15.6 3.0 38 6.7 SW 2 6 1 3 1017.3 - 0.0
31/06:00pm 19.3 16.0 2.2 32 7.9 S 9 11 5 6 1016.9 1016.7 0.0
31/05:30pm 21.3 17.9 2.1 28 9.0 SSE 9 11 5 6 1016.7 - 0.0
31/05:00pm 22.3 18.1 1.9 26 9.6 SSE 13 20 7 11 1016.6 - 0.0
31/04:30pm 22.5 18.4 2.1 26 9.7 S 13 22 7 12 1016.3 - 0.0
31/04:00pm 22.8 18.3 2.3 26 9.8 SSW 15 22 8 12 1016.2 - 0.0
31/03:30pm 23.2 18.3 2.1 25 10.1 W 17 24 9 13 1016.5 - 0.0
31/03:00pm 23.0 18.9 2.5 26 9.8 SW 13 20 7 11 1016.6 1016.4 0.0
31/02:30pm 22.7 18.3 2.8 27 9.6 SW 15 22 8 12 1017.0 - 0.0
31/02:00pm 22.4 18.5 3.5 29 9.2 SSW 13 20 7 11 1017.2 - 0.0
31/01:30pm 22.0 18.4 3.2 29 9.1 S 11 19 6 10 1017.7 - 0.0
31/01:00pm 22.2 17.3 4.3 31 8.8 S 19 26 10 14 1018.1 - 0.0
31/12:30pm 22.1 18.4 4.6 32 8.7 SSW 13 20 7 11 1018.5 - 0.0
31/12:00pm 21.5 16.4 4.1 32 8.5 SW 20 26 11 14 1018.9 1018.8 0.0
31/11:30am 21.2 18.2 4.3 33 8.3 SSW 9 15 5 8 1019.2 - 0.0
31/11:00am 20.8 17.7 5.6 37 7.6 W 11 20 6 11 1019.7 - 0.0
31/10:30am 19.9 16.4 5.5 39 7.2 S 13 17 7 9 1020.2 - 0.0
31/10:00am 20.1 17.0 7.1 43 6.7 SSW 13 17 7 9 1020.4 - 0.0
31/09:30am 18.3 16.2 6.8 47 5.8 SSW 7 11 4 6 1020.5 - 0.0
31/09:00am 16.1 14.6 6.8 54 4.6 WSW 4 7 2 4 1020.7 1020.6 0.0
31/08:30am 14.2 12.2 6.3 59 3.8 SSE 6 9 3 5 1020.6 - 0.0
31/08:00am 12.5 9.8 5.7 63 3.2 S 9 11 5 6 1020.6 - 0.0
31/07:30am 10.3 7.9 4.5 67 2.6 SSW 6 7 3 4 1020.4 - 0.0

Other Formats:

Comma delimited format used in spreadsheet applications
http://www.bom.gov.au/fwo/IDQ60801/IDQ60801.94517.axf

JavaScript Object Notation format (JSON) in row-major order
http://www.bom.gov.au/fwo/IDQ60801/IDQ60801.94517.json